sensor_id;sensor_type;location;lat;lon;timestamp;P1;durP1;ratioP1;P2;durP2;ratioP2
43248;SDS011;29216;51.248;6.808;2023-10-13T00:02:06;13.93;;;9.32;;
43248;SDS011;29216;51.248;6.808;2023-10-13T00:04:33;12.10;;;9.10;;
43248;SDS011;29216;51.248;6.808;2023-10-13T00:07:02;16.88;;;8.90;;
43248;SDS011;29216;51.248;6.808;2023-10-13T00:09:29;11.68;;;8.48;;
43248;SDS011;29216;51.248;6.808;2023-10-13T00:11:58;15.10;;;9.30;;
43248;SDS011;29216;51.248;6.808;2023-10-13T00:14:24;16.75;;;9.00;;
43248;SDS011;29216;51.248;6.808;2023-10-13T00:17:03;15.23;;;8.90;;
43248;SDS011;29216;51.248;6.808;2023-10-13T00:19:30;15.63;;;9.40;;
43248;SDS011;29216;51.248;6.808;2023-10-13T00:22:02;21.75;;;9.30;;
43248;SDS011;29216;51.248;6.808;2023-10-13T00:24:34;14.45;;;9.05;;
43248;SDS011;29216;51.248;6.808;2023-10-13T00:27:07;12.75;;;8.23;;
43248;SDS011;29216;51.248;6.808;2023-10-13T00:29:36;13.48;;;8.68;;
43248;SDS011;29216;51.248;6.808;2023-10-13T00:32:02;20.05;;;9.15;;
43248;SDS011;29216;51.248;6.808;2023-10-13T00:34:31;13.90;;;8.68;;
43248;SDS011;29216;51.248;6.808;2023-10-13T00:36:57;10.40;;;7.75;;
43248;SDS011;29216;51.248;6.808;2023-10-13T00:39:44;13.32;;;8.38;;
43248;SDS011;29216;51.248;6.808;2023-10-13T00:42:12;10.88;;;7.80;;
43248;SDS011;29216;51.248;6.808;2023-10-13T00:44:58;12.18;;;7.90;;
43248;SDS011;29216;51.248;6.808;2023-10-13T00:47:25;17.30;;;9.88;;
43248;SDS011;29216;51.248;6.808;2023-10-13T00:50:01;12.27;;;6.97;;
43248;SDS011;29216;51.248;6.808;2023-10-13T00:52:28;12.00;;;7.25;;
43248;SDS011;29216;51.248;6.808;2023-10-13T00:54:55;11.57;;;7.18;;
43248;SDS011;29216;51.248;6.808;2023-10-13T00:57:21;11.63;;;7.65;;
43248;SDS011;29216;51.248;6.808;2023-10-13T00:59:54;10.93;;;8.00;;
43248;SDS011;29216;51.248;6.808;2023-10-13T01:02:21;10.77;;;6.68;;
43248;SDS011;29216;51.248;6.808;2023-10-13T01:05:05;10.73;;;7.82;;
43248;SDS011;29216;51.248;6.808;2023-10-13T01:07:45;12.52;;;7.40;;
43248;SDS011;29216;51.248;6.808;2023-10-13T01:10:15;9.32;;;7.40;;
43248;SDS011;29216;51.248;6.808;2023-10-13T01:12:41;9.32;;;7.47;;
43248;SDS011;29216;51.248;6.808;2023-10-13T01:15:08;11.40;;;7.75;;
43248;SDS011;29216;51.248;6.808;2023-10-13T01:17:36;10.38;;;7.47;;
43248;SDS011;29216;51.248;6.808;2023-10-13T01:20:03;9.98;;;7.10;;
43248;SDS011;29216;51.248;6.808;2023-10-13T01:22:30;13.30;;;7.70;;
43248;SDS011;29216;51.248;6.808;2023-10-13T01:24:57;9.27;;;8.18;;
43248;SDS011;29216;51.248;6.808;2023-10-13T01:27:35;11.82;;;7.68;;
43248;SDS011;29216;51.248;6.808;2023-10-13T01:30:03;9.88;;;7.18;;
43248;SDS011;29216;51.248;6.808;2023-10-13T01:32:38;10.98;;;7.32;;
43248;SDS011;29216;51.248;6.808;2023-10-13T01:35:10;10.13;;;7.95;;
43248;SDS011;29216;51.248;6.808;2023-10-13T01:37:36;9.88;;;7.78;;
43248;SDS011;29216;51.248;6.808;2023-10-13T01:40:02;13.73;;;7.72;;
43248;SDS011;29216;51.248;6.808;2023-10-13T01:42:29;11.98;;;7.75;;
43248;SDS011;29216;51.248;6.808;2023-10-13T01:44:55;10.98;;;8.27;;
43248;SDS011;29216;51.248;6.808;2023-10-13T01:47:23;14.25;;;7.97;;
43248;SDS011;29216;51.248;6.808;2023-10-13T01:49:52;13.05;;;8.15;;
43248;SDS011;29216;51.248;6.808;2023-10-13T01:52:18;11.30;;;7.95;;
43248;SDS011;29216;51.248;6.808;2023-10-13T01:54:45;13.70;;;8.43;;
43248;SDS011;29216;51.248;6.808;2023-10-13T01:57:12;14.60;;;8.60;;
43248;SDS011;29216;51.248;6.808;2023-10-13T01:59:44;12.30;;;8.07;;
43248;SDS011;29216;51.248;6.808;2023-10-13T02:02:10;14.52;;;8.23;;
43248;SDS011;29216;51.248;6.808;2023-10-13T02:04:40;12.18;;;8.43;;
43248;SDS011;29216;51.248;6.808;2023-10-13T02:07:21;14.07;;;8.73;;
43248;SDS011;29216;51.248;6.808;2023-10-13T02:09:55;13.25;;;8.05;;
43248;SDS011;29216;51.248;6.808;2023-10-13T02:12:21;14.40;;;8.77;;
43248;SDS011;29216;51.248;6.808;2023-10-13T02:15:07;11.88;;;8.05;;
43248;SDS011;29216;51.248;6.808;2023-10-13T02:17:33;17.90;;;8.38;;
43248;SDS011;29216;51.248;6.808;2023-10-13T02:20:08;11.88;;;7.97;;
43248;SDS011;29216;51.248;6.808;2023-10-13T02:22:41;10.43;;;8.30;;
43248;SDS011;29216;51.248;6.808;2023-10-13T02:25:16;15.30;;;8.88;;
43248;SDS011;29216;51.248;6.808;2023-10-13T02:27:59;13.70;;;9.07;;
43248;SDS011;29216;51.248;6.808;2023-10-13T02:30:25;15.60;;;9.80;;
43248;SDS011;29216;51.248;6.808;2023-10-13T02:32:51;15.93;;;9.02;;
43248;SDS011;29216;51.248;6.808;2023-10-13T02:35:18;16.45;;;9.20;;
43248;SDS011;29216;51.248;6.808;2023-10-13T02:37:54;12.55;;;8.00;;
43248;SDS011;29216;51.248;6.808;2023-10-13T02:40:22;14.15;;;8.88;;
43248;SDS011;29216;51.248;6.808;2023-10-13T02:42:48;16.90;;;10.02;;
43248;SDS011;29216;51.248;6.808;2023-10-13T02:45:14;13.27;;;8.77;;
43248;SDS011;29216;51.248;6.808;2023-10-13T02:47:40;12.02;;;9.10;;
43248;SDS011;29216;51.248;6.808;2023-10-13T02:50:09;17.40;;;9.13;;
43248;SDS011;29216;51.248;6.808;2023-10-13T02:52:38;13.15;;;9.43;;
43248;SDS011;29216;51.248;6.808;2023-10-13T02:55:07;14.93;;;9.57;;
43248;SDS011;29216;51.248;6.808;2023-10-13T02:57:39;15.18;;;9.73;;
43248;SDS011;29216;51.248;6.808;2023-10-13T03:00:06;12.80;;;9.82;;
43248;SDS011;29216;51.248;6.808;2023-10-13T03:02:38;14.35;;;9.30;;
43248;SDS011;29216;51.248;6.808;2023-10-13T03:05:23;14.32;;;10.05;;
43248;SDS011;29216;51.248;6.808;2023-10-13T03:07:49;13.55;;;9.80;;
43248;SDS011;29216;51.248;6.808;2023-10-13T03:10:15;22.75;;;10.88;;
43248;SDS011;29216;51.248;6.808;2023-10-13T03:12:44;13.88;;;10.70;;
43248;SDS011;29216;51.248;6.808;2023-10-13T03:15:14;17.20;;;10.30;;
43248;SDS011;29216;51.248;6.808;2023-10-13T03:17:46;17.63;;;10.27;;
43248;SDS011;29216;51.248;6.808;2023-10-13T03:20:16;15.88;;;10.98;;
43248;SDS011;29216;51.248;6.808;2023-10-13T03:22:58;14.35;;;10.30;;
43248;SDS011;29216;51.248;6.808;2023-10-13T03:25:24;13.57;;;9.95;;
43248;SDS011;29216;51.248;6.808;2023-10-13T03:27:53;18.42;;;10.85;;
43248;SDS011;29216;51.248;6.808;2023-10-13T03:30:19;12.35;;;10.93;;
43248;SDS011;29216;51.248;6.808;2023-10-13T03:32:55;18.52;;;11.05;;
43248;SDS011;29216;51.248;6.808;2023-10-13T03:35:21;16.38;;;11.40;;
43248;SDS011;29216;51.248;6.808;2023-10-13T03:37:55;14.98;;;10.70;;
43248;SDS011;29216;51.248;6.808;2023-10-13T03:40:22;15.57;;;11.23;;
43248;SDS011;29216;51.248;6.808;2023-10-13T03:42:51;13.65;;;10.75;;
43248;SDS011;29216;51.248;6.808;2023-10-13T03:45:24;15.88;;;11.77;;
43248;SDS011;29216;51.248;6.808;2023-10-13T03:47:51;14.45;;;10.88;;
43248;SDS011;29216;51.248;6.808;2023-10-13T03:50:17;14.95;;;11.13;;
43248;SDS011;29216;51.248;6.808;2023-10-13T03:52:54;18.20;;;11.88;;
43248;SDS011;29216;51.248;6.808;2023-10-13T03:55:24;19.10;;;11.82;;
43248;SDS011;29216;51.248;6.808;2023-10-13T03:57:52;17.30;;;11.85;;
43248;SDS011;29216;51.248;6.808;2023-10-13T04:00:19;22.92;;;12.50;;
43248;SDS011;29216;51.248;6.808;2023-10-13T04:02:50;15.73;;;11.50;;
43248;SDS011;29216;51.248;6.808;2023-10-13T04:05:29;15.50;;;11.80;;
43248;SDS011;29216;51.248;6.808;2023-10-13T04:08:07;18.75;;;12.40;;
43248;SDS011;29216;51.248;6.808;2023-10-13T04:10:59;18.65;;;12.05;;
43248;SDS011;29216;51.248;6.808;2023-10-13T04:13:25;17.90;;;12.10;;
43248;SDS011;29216;51.248;6.808;2023-10-13T04:16:10;18.17;;;12.07;;
43248;SDS011;29216;51.248;6.808;2023-10-13T04:18:48;23.77;;;13.13;;
43248;SDS011;29216;51.248;6.808;2023-10-13T04:21:23;19.13;;;13.00;;
43248;SDS011;29216;51.248;6.808;2023-10-13T04:24:07;16.77;;;12.18;;
43248;SDS011;29216;51.248;6.808;2023-10-13T04:26:53;23.98;;;12.32;;
43248;SDS011;29216;51.248;6.808;2023-10-13T04:29:52;20.35;;;12.82;;
43248;SDS011;29216;51.248;6.808;2023-10-13T04:32:33;19.90;;;12.07;;
43248;SDS011;29216;51.248;6.808;2023-10-13T04:35:11;20.02;;;12.35;;
43248;SDS011;29216;51.248;6.808;2023-10-13T04:37:37;18.83;;;12.82;;
43248;SDS011;29216;51.248;6.808;2023-10-13T04:40:17;16.00;;;12.52;;
43248;SDS011;29216;51.248;6.808;2023-10-13T04:45:25;19.30;;;11.75;;
43248;SDS011;29216;51.248;6.808;2023-10-13T04:48:00;22.60;;;12.77;;
43248;SDS011;29216;51.248;6.808;2023-10-13T04:50:46;17.90;;;12.77;;
43248;SDS011;29216;51.248;6.808;2023-10-13T04:53:15;18.17;;;12.85;;
43248;SDS011;29216;51.248;6.808;2023-10-13T04:56:10;24.25;;;13.13;;
43248;SDS011;29216;51.248;6.808;2023-10-13T04:58:55;20.17;;;12.10;;
43248;SDS011;29216;51.248;6.808;2023-10-13T05:01:40;18.55;;;12.38;;
43248;SDS011;29216;51.248;6.808;2023-10-13T05:04:32;20.15;;;13.32;;
43248;SDS011;29216;51.248;6.808;2023-10-13T05:07:24;20.75;;;14.02;;
43248;SDS011;29216;51.248;6.808;2023-10-13T05:10:09;24.48;;;12.82;;
43248;SDS011;29216;51.248;6.808;2023-10-13T05:12:53;20.35;;;12.68;;
43248;SDS011;29216;51.248;6.808;2023-10-13T05:15:48;16.98;;;12.73;;
43248;SDS011;29216;51.248;6.808;2023-10-13T05:18:33;16.45;;;12.65;;
43248;SDS011;29216;51.248;6.808;2023-10-13T05:21:18;19.60;;;13.13;;
43248;SDS011;29216;51.248;6.808;2023-10-13T05:24:03;18.85;;;13.60;;
43248;SDS011;29216;51.248;6.808;2023-10-13T05:26:58;16.73;;;12.85;;
43248;SDS011;29216;51.248;6.808;2023-10-13T05:29:43;20.85;;;12.48;;
43248;SDS011;29216;51.248;6.808;2023-10-13T05:32:28;16.85;;;12.70;;
43248;SDS011;29216;51.248;6.808;2023-10-13T05:35:13;22.63;;;13.90;;
43248;SDS011;29216;51.248;6.808;2023-10-13T05:37:58;25.85;;;14.27;;
43248;SDS011;29216;51.248;6.808;2023-10-13T05:40:53;17.10;;;12.27;;
43248;SDS011;29216;51.248;6.808;2023-10-13T05:46:22;14.80;;;11.82;;
43248;SDS011;29216;51.248;6.808;2023-10-13T05:48:51;21.63;;;13.32;;
43248;SDS011;29216;51.248;6.808;2023-10-13T05:51:26;23.38;;;13.10;;
43248;SDS011;29216;51.248;6.808;2023-10-13T05:54:09;19.83;;;12.27;;
43248;SDS011;29216;51.248;6.808;2023-10-13T05:56:38;23.52;;;13.25;;
43248;SDS011;29216;51.248;6.808;2023-10-13T05:59:23;20.50;;;13.00;;
43248;SDS011;29216;51.248;6.808;2023-10-13T06:02:08;16.88;;;11.68;;
43248;SDS011;29216;51.248;6.808;2023-10-13T06:04:53;20.05;;;12.05;;
43248;SDS011;29216;51.248;6.808;2023-10-13T06:07:37;24.15;;;12.10;;
43248;SDS011;29216;51.248;6.808;2023-10-13T06:10:22;20.20;;;11.05;;
43248;SDS011;29216;51.248;6.808;2023-10-13T06:13:07;21.98;;;12.63;;
43248;SDS011;29216;51.248;6.808;2023-10-13T06:15:51;21.65;;;11.77;;
43248;SDS011;29216;51.248;6.808;2023-10-13T06:18:36;17.02;;;10.27;;
43248;SDS011;29216;51.248;6.808;2023-10-13T06:21:21;18.60;;;10.60;;
43248;SDS011;29216;51.248;6.808;2023-10-13T06:24:07;22.05;;;11.70;;
43248;SDS011;29216;51.248;6.808;2023-10-13T06:26:52;20.48;;;11.38;;
43248;SDS011;29216;51.248;6.808;2023-10-13T06:29:36;18.42;;;11.10;;
43248;SDS011;29216;51.248;6.808;2023-10-13T06:32:02;16.13;;;9.73;;
43248;SDS011;29216;51.248;6.808;2023-10-13T06:34:35;20.30;;;11.30;;
43248;SDS011;29216;51.248;6.808;2023-10-13T06:37:10;17.63;;;10.55;;
43248;SDS011;29216;51.248;6.808;2023-10-13T06:39:50;18.65;;;11.15;;
43248;SDS011;29216;51.248;6.808;2023-10-13T06:42:16;15.98;;;10.48;;
43248;SDS011;29216;51.248;6.808;2023-10-13T06:44:44;22.65;;;11.05;;
43248;SDS011;29216;51.248;6.808;2023-10-13T06:47:11;20.90;;;9.68;;
43248;SDS011;29216;51.248;6.808;2023-10-13T06:49:38;14.88;;;10.85;;
43248;SDS011;29216;51.248;6.808;2023-10-13T06:52:04;16.45;;;10.65;;
43248;SDS011;29216;51.248;6.808;2023-10-13T06:54:34;19.73;;;11.80;;
43248;SDS011;29216;51.248;6.808;2023-10-13T06:57:00;15.90;;;11.73;;
43248;SDS011;29216;51.248;6.808;2023-10-13T06:59:29;15.95;;;11.63;;
43248;SDS011;29216;51.248;6.808;2023-10-13T07:01:58;15.48;;;10.77;;
43248;SDS011;29216;51.248;6.808;2023-10-13T07:04:30;21.92;;;11.15;;
43248;SDS011;29216;51.248;6.808;2023-10-13T07:06:56;16.90;;;10.88;;
43248;SDS011;29216;51.248;6.808;2023-10-13T07:09:22;22.10;;;11.90;;
43248;SDS011;29216;51.248;6.808;2023-10-13T07:12:05;20.95;;;11.13;;
43248;SDS011;29216;51.248;6.808;2023-10-13T07:14:32;18.42;;;12.07;;
43248;SDS011;29216;51.248;6.808;2023-10-13T07:17:05;17.02;;;10.75;;
43248;SDS011;29216;51.248;6.808;2023-10-13T07:19:33;21.90;;;10.60;;
43248;SDS011;29216;51.248;6.808;2023-10-13T07:22:01;17.98;;;10.55;;
43248;SDS011;29216;51.248;6.808;2023-10-13T07:24:47;16.67;;;11.07;;
43248;SDS011;29216;51.248;6.808;2023-10-13T07:27:22;18.48;;;10.82;;
43248;SDS011;29216;51.248;6.808;2023-10-13T07:29:53;15.25;;;11.23;;
43248;SDS011;29216;51.248;6.808;2023-10-13T07:32:31;16.55;;;10.68;;
43248;SDS011;29216;51.248;6.808;2023-10-13T07:34:59;18.27;;;10.65;;
43248;SDS011;29216;51.248;6.808;2023-10-13T07:37:36;21.98;;;11.27;;
43248;SDS011;29216;51.248;6.808;2023-10-13T07:40:06;26.92;;;11.80;;
43248;SDS011;29216;51.248;6.808;2023-10-13T07:42:54;15.57;;;10.15;;
43248;SDS011;29216;51.248;6.808;2023-10-13T07:45:29;15.27;;;10.93;;
43248;SDS011;29216;51.248;6.808;2023-10-13T07:50:37;18.52;;;9.57;;
43248;SDS011;29216;51.248;6.808;2023-10-13T07:53:03;17.42;;;9.00;;
43248;SDS011;29216;51.248;6.808;2023-10-13T07:58:14;16.02;;;8.57;;
43248;SDS011;29216;51.248;6.808;2023-10-13T08:00:40;18.52;;;8.45;;
43248;SDS011;29216;51.248;6.808;2023-10-13T08:03:08;14.50;;;8.30;;
43248;SDS011;29216;51.248;6.808;2023-10-13T08:05:41;15.77;;;8.07;;
43248;SDS011;29216;51.248;6.808;2023-10-13T08:08:26;17.20;;;8.30;;
43248;SDS011;29216;51.248;6.808;2023-10-13T08:11:00;16.85;;;7.68;;
43248;SDS011;29216;51.248;6.808;2023-10-13T08:13:34;17.40;;;8.45;;
43248;SDS011;29216;51.248;6.808;2023-10-13T08:16:02;15.10;;;7.53;;
43248;SDS011;29216;51.248;6.808;2023-10-13T08:18:34;20.48;;;7.30;;
43248;SDS011;29216;51.248;6.808;2023-10-13T08:21:01;15.35;;;8.38;;
43248;SDS011;29216;51.248;6.808;2023-10-13T08:23:28;16.45;;;7.97;;
43248;SDS011;29216;51.248;6.808;2023-10-13T08:26:24;11.88;;;6.93;;
43248;SDS011;29216;51.248;6.808;2023-10-13T08:29:09;11.55;;;7.20;;
43248;SDS011;29216;51.248;6.808;2023-10-13T08:32:01;15.35;;;7.18;;
43248;SDS011;29216;51.248;6.808;2023-10-13T08:34:40;14.65;;;7.32;;
43248;SDS011;29216;51.248;6.808;2023-10-13T08:37:12;14.70;;;7.60;;
43248;SDS011;29216;51.248;6.808;2023-10-13T08:39:45;15.82;;;6.57;;
43248;SDS011;29216;51.248;6.808;2023-10-13T08:42:43;12.02;;;7.03;;
43248;SDS011;29216;51.248;6.808;2023-10-13T08:45:10;15.85;;;6.95;;
43248;SDS011;29216;51.248;6.808;2023-10-13T08:48:06;17.73;;;7.97;;
43248;SDS011;29216;51.248;6.808;2023-10-13T08:50:34;13.68;;;6.40;;
43248;SDS011;29216;51.248;6.808;2023-10-13T08:53:16;14.15;;;7.32;;
43248;SDS011;29216;51.248;6.808;2023-10-13T08:55:56;19.05;;;7.38;;
43248;SDS011;29216;51.248;6.808;2023-10-13T08:58:41;14.40;;;5.78;;
43248;SDS011;29216;51.248;6.808;2023-10-13T09:01:26;14.85;;;6.22;;
43248;SDS011;29216;51.248;6.808;2023-10-13T09:03:59;11.45;;;6.25;;
43248;SDS011;29216;51.248;6.808;2023-10-13T09:09:43;13.02;;;5.95;;
43248;SDS011;29216;51.248;6.808;2023-10-13T09:12:20;12.55;;;5.60;;
43248;SDS011;29216;51.248;6.808;2023-10-13T09:15:07;13.70;;;6.18;;
43248;SDS011;29216;51.248;6.808;2023-10-13T09:17:48;15.52;;;5.90;;
43248;SDS011;29216;51.248;6.808;2023-10-13T09:20:29;15.40;;;5.80;;
43248;SDS011;29216;51.248;6.808;2023-10-13T09:23:10;13.18;;;5.15;;
43248;SDS011;29216;51.248;6.808;2023-10-13T09:25:50;15.15;;;5.60;;
43248;SDS011;29216;51.248;6.808;2023-10-13T09:28:22;9.77;;;4.95;;
43248;SDS011;29216;51.248;6.808;2023-10-13T09:30:52;16.83;;;5.65;;
43248;SDS011;29216;51.248;6.808;2023-10-13T09:33:21;12.82;;;5.13;;
43248;SDS011;29216;51.248;6.808;2023-10-13T09:36:12;13.18;;;5.47;;
43248;SDS011;29216;51.248;6.808;2023-10-13T09:38:42;14.32;;;5.45;;
43248;SDS011;29216;51.248;6.808;2023-10-13T09:41:28;15.20;;;5.45;;
43248;SDS011;29216;51.248;6.808;2023-10-13T09:43:57;14.85;;;5.55;;
43248;SDS011;29216;51.248;6.808;2023-10-13T09:46:25;13.15;;;5.70;;
43248;SDS011;29216;51.248;6.808;2023-10-13T09:49:04;10.98;;;5.53;;
43248;SDS011;29216;51.248;6.808;2023-10-13T09:51:32;15.18;;;5.40;;
43248;SDS011;29216;51.248;6.808;2023-10-13T09:56:39;11.43;;;5.57;;
43248;SDS011;29216;51.248;6.808;2023-10-13T09:59:17;16.58;;;5.72;;
43248;SDS011;29216;51.248;6.808;2023-10-13T10:01:44;14.30;;;5.40;;
43248;SDS011;29216;51.248;6.808;2023-10-13T10:04:22;13.77;;;5.63;;
43248;SDS011;29216;51.248;6.808;2023-10-13T10:06:55;15.80;;;6.18;;
43248;SDS011;29216;51.248;6.808;2023-10-13T10:09:31;15.23;;;5.90;;
43248;SDS011;29216;51.248;6.808;2023-10-13T10:17:05;15.25;;;5.88;;
43248;SDS011;29216;51.248;6.808;2023-10-13T10:19:50;13.60;;;6.00;;
43248;SDS011;29216;51.248;6.808;2023-10-13T10:22:30;9.57;;;4.82;;
43248;SDS011;29216;51.248;6.808;2023-10-13T10:25:01;14.70;;;6.00;;
43248;SDS011;29216;51.248;6.808;2023-10-13T10:27:28;12.27;;;6.35;;
43248;SDS011;29216;51.248;6.808;2023-10-13T10:29:55;10.05;;;6.00;;
43248;SDS011;29216;51.248;6.808;2023-10-13T10:32:21;9.32;;;5.50;;
43248;SDS011;29216;51.248;6.808;2023-10-13T10:35:04;9.77;;;5.63;;
43248;SDS011;29216;51.248;6.808;2023-10-13T10:37:33;12.95;;;6.47;;
43248;SDS011;29216;51.248;6.808;2023-10-13T10:39:59;14.00;;;6.13;;
43248;SDS011;29216;51.248;6.808;2023-10-13T10:42:30;15.05;;;5.65;;
43248;SDS011;29216;51.248;6.808;2023-10-13T10:44:56;9.73;;;6.10;;
43248;SDS011;29216;51.248;6.808;2023-10-13T10:47:30;10.35;;;5.90;;
43248;SDS011;29216;51.248;6.808;2023-10-13T10:49:57;10.18;;;5.40;;
43248;SDS011;29216;51.248;6.808;2023-10-13T10:52:25;11.48;;;6.32;;
43248;SDS011;29216;51.248;6.808;2023-10-13T10:55:01;11.95;;;5.97;;
43248;SDS011;29216;51.248;6.808;2023-10-13T10:57:31;10.98;;;5.82;;
43248;SDS011;29216;51.248;6.808;2023-10-13T11:00:02;13.98;;;5.90;;
43248;SDS011;29216;51.248;6.808;2023-10-13T11:02:39;12.20;;;5.90;;
43248;SDS011;29216;51.248;6.808;2023-10-13T11:05:08;14.23;;;5.78;;
43248;SDS011;29216;51.248;6.808;2023-10-13T11:07:34;21.25;;;6.68;;
43248;SDS011;29216;51.248;6.808;2023-10-13T11:10:07;10.02;;;6.20;;
43248;SDS011;29216;51.248;6.808;2023-10-13T11:12:36;18.77;;;6.18;;
43248;SDS011;29216;51.248;6.808;2023-10-13T11:17:53;12.48;;;6.22;;
43248;SDS011;29216;51.248;6.808;2023-10-13T11:20:20;15.52;;;6.47;;
43248;SDS011;29216;51.248;6.808;2023-10-13T11:22:58;12.85;;;6.60;;
43248;SDS011;29216;51.248;6.808;2023-10-13T11:25:30;10.15;;;6.15;;
43248;SDS011;29216;51.248;6.808;2023-10-13T11:28:16;14.77;;;5.78;;
43248;SDS011;29216;51.248;6.808;2023-10-13T11:30:42;12.38;;;5.93;;
43248;SDS011;29216;51.248;6.808;2023-10-13T11:33:14;13.52;;;5.22;;
43248;SDS011;29216;51.248;6.808;2023-10-13T11:35:44;18.08;;;5.97;;
43248;SDS011;29216;51.248;6.808;2023-10-13T11:41:01;10.57;;;6.35;;
43248;SDS011;29216;51.248;6.808;2023-10-13T11:43:30;18.75;;;6.20;;
43248;SDS011;29216;51.248;6.808;2023-10-13T11:46:12;14.45;;;5.97;;
43248;SDS011;29216;51.248;6.808;2023-10-13T11:48:40;11.45;;;5.88;;
43248;SDS011;29216;51.248;6.808;2023-10-13T11:51:10;16.70;;;5.82;;
43248;SDS011;29216;51.248;6.808;2023-10-13T11:53:42;13.13;;;5.70;;
43248;SDS011;29216;51.248;6.808;2023-10-13T11:56:08;13.15;;;5.45;;
43248;SDS011;29216;51.248;6.808;2023-10-13T11:58:38;20.33;;;7.25;;
43248;SDS011;29216;51.248;6.808;2023-10-13T12:01:04;12.50;;;5.57;;
43248;SDS011;29216;51.248;6.808;2023-10-13T12:03:43;14.40;;;6.43;;
43248;SDS011;29216;51.248;6.808;2023-10-13T12:06:29;12.13;;;5.30;;
43248;SDS011;29216;51.248;6.808;2023-10-13T12:09:11;19.83;;;5.72;;
43248;SDS011;29216;51.248;6.808;2023-10-13T12:11:44;15.68;;;5.13;;
43248;SDS011;29216;51.248;6.808;2023-10-13T12:14:11;15.88;;;5.72;;
43248;SDS011;29216;51.248;6.808;2023-10-13T12:16:42;20.20;;;5.95;;
43248;SDS011;29216;51.248;6.808;2023-10-13T12:19:12;20.80;;;6.65;;
43248;SDS011;29216;51.248;6.808;2023-10-13T12:21:40;10.90;;;5.50;;
43248;SDS011;29216;51.248;6.808;2023-10-13T12:24:08;18.08;;;5.70;;
43248;SDS011;29216;51.248;6.808;2023-10-13T12:26:47;16.35;;;5.90;;
43248;SDS011;29216;51.248;6.808;2023-10-13T12:29:13;15.23;;;5.25;;
43248;SDS011;29216;51.248;6.808;2023-10-13T12:31:47;14.98;;;5.90;;
43248;SDS011;29216;51.248;6.808;2023-10-13T12:34:26;13.85;;;5.60;;
43248;SDS011;29216;51.248;6.808;2023-10-13T12:37:12;15.45;;;5.68;;
43248;SDS011;29216;51.248;6.808;2023-10-13T12:40:03;15.18;;;5.97;;
43248;SDS011;29216;51.248;6.808;2023-10-13T12:42:47;15.18;;;5.10;;
43248;SDS011;29216;51.248;6.808;2023-10-13T12:45:32;20.83;;;5.65;;
43248;SDS011;29216;51.248;6.808;2023-10-13T12:48:17;20.23;;;5.72;;
43248;SDS011;29216;51.248;6.808;2023-10-13T12:51:01;12.57;;;5.30;;
43248;SDS011;29216;51.248;6.808;2023-10-13T12:53:50;15.55;;;5.80;;
43248;SDS011;29216;51.248;6.808;2023-10-13T12:56:16;20.38;;;6.13;;
43248;SDS011;29216;51.248;6.808;2023-10-13T12:58:43;15.18;;;6.13;;
43248;SDS011;29216;51.248;6.808;2023-10-13T13:01:20;17.73;;;5.72;;
43248;SDS011;29216;51.248;6.808;2023-10-13T13:03:46;18.85;;;5.38;;
43248;SDS011;29216;51.248;6.808;2023-10-13T13:06:17;16.05;;;5.30;;
43248;SDS011;29216;51.248;6.808;2023-10-13T13:08:43;12.88;;;5.70;;
43248;SDS011;29216;51.248;6.808;2023-10-13T13:11:10;17.92;;;6.57;;
43248;SDS011;29216;51.248;6.808;2023-10-13T13:13:36;20.67;;;6.18;;
43248;SDS011;29216;51.248;6.808;2023-10-13T13:16:02;20.85;;;6.00;;
43248;SDS011;29216;51.248;6.808;2023-10-13T13:18:29;13.63;;;5.25;;
43248;SDS011;29216;51.248;6.808;2023-10-13T13:20:55;23.95;;;6.25;;
43248;SDS011;29216;51.248;6.808;2023-10-13T13:23:21;15.82;;;5.57;;
43248;SDS011;29216;51.248;6.808;2023-10-13T13:25:51;14.35;;;5.15;;
43248;SDS011;29216;51.248;6.808;2023-10-13T13:28:16;15.98;;;5.82;;
43248;SDS011;29216;51.248;6.808;2023-10-13T13:30:43;15.18;;;5.63;;
43248;SDS011;29216;51.248;6.808;2023-10-13T13:33:09;22.15;;;5.55;;
43248;SDS011;29216;51.248;6.808;2023-10-13T13:35:39;17.55;;;5.57;;
43248;SDS011;29216;51.248;6.808;2023-10-13T13:38:08;16.52;;;5.63;;
43248;SDS011;29216;51.248;6.808;2023-10-13T13:40:55;16.27;;;6.05;;
43248;SDS011;29216;51.248;6.808;2023-10-13T13:43:21;16.52;;;5.68;;
43248;SDS011;29216;51.248;6.808;2023-10-13T13:46:10;17.65;;;6.05;;
43248;SDS011;29216;51.248;6.808;2023-10-13T13:48:36;18.50;;;5.88;;
43248;SDS011;29216;51.248;6.808;2023-10-13T13:51:06;20.25;;;5.95;;
43248;SDS011;29216;51.248;6.808;2023-10-13T13:53:44;18.60;;;6.22;;
43248;SDS011;29216;51.248;6.808;2023-10-13T13:56:14;21.80;;;6.65;;
43248;SDS011;29216;51.248;6.808;2023-10-13T13:58:46;20.40;;;6.13;;
43248;SDS011;29216;51.248;6.808;2023-10-13T14:01:12;21.63;;;5.18;;
43248;SDS011;29216;51.248;6.808;2023-10-13T14:03:49;15.48;;;5.55;;
43248;SDS011;29216;51.248;6.808;2023-10-13T14:06:16;16.45;;;6.28;;
43248;SDS011;29216;51.248;6.808;2023-10-13T14:08:53;19.48;;;5.95;;
43248;SDS011;29216;51.248;6.808;2023-10-13T14:11:20;18.50;;;5.45;;
43248;SDS011;29216;51.248;6.808;2023-10-13T14:14:08;25.05;;;5.55;;
43248;SDS011;29216;51.248;6.808;2023-10-13T14:16:38;23.15;;;6.03;;
43248;SDS011;29216;51.248;6.808;2023-10-13T14:19:09;15.82;;;5.28;;
43248;SDS011;29216;51.248;6.808;2023-10-13T14:21:35;17.95;;;5.72;;
43248;SDS011;29216;51.248;6.808;2023-10-13T14:24:01;13.77;;;5.57;;
43248;SDS011;29216;51.248;6.808;2023-10-13T14:26:28;19.42;;;5.97;;
43248;SDS011;29216;51.248;6.808;2023-10-13T14:28:55;13.25;;;5.45;;
43248;SDS011;29216;51.248;6.808;2023-10-13T14:31:31;17.30;;;6.28;;
43248;SDS011;29216;51.248;6.808;2023-10-13T14:33:57;16.13;;;5.70;;
43248;SDS011;29216;51.248;6.808;2023-10-13T14:36:26;15.52;;;5.35;;
43248;SDS011;29216;51.248;6.808;2023-10-13T14:38:59;18.60;;;5.60;;
43248;SDS011;29216;51.248;6.808;2023-10-13T14:41:25;14.38;;;5.93;;
43248;SDS011;29216;51.248;6.808;2023-10-13T14:43:51;17.20;;;5.93;;
43248;SDS011;29216;51.248;6.808;2023-10-13T14:46:18;19.15;;;5.40;;
43248;SDS011;29216;51.248;6.808;2023-10-13T14:48:54;15.90;;;5.57;;
43248;SDS011;29216;51.248;6.808;2023-10-13T14:51:20;22.20;;;5.93;;
43248;SDS011;29216;51.248;6.808;2023-10-13T14:53:46;14.77;;;5.40;;
43248;SDS011;29216;51.248;6.808;2023-10-13T14:56:16;18.02;;;6.82;;
43248;SDS011;29216;51.248;6.808;2023-10-13T14:58:42;15.80;;;5.75;;
43248;SDS011;29216;51.248;6.808;2023-10-13T15:01:12;13.48;;;5.28;;
43248;SDS011;29216;51.248;6.808;2023-10-13T15:03:41;16.70;;;5.20;;
43248;SDS011;29216;51.248;6.808;2023-10-13T15:06:07;14.15;;;6.05;;
43248;SDS011;29216;51.248;6.808;2023-10-13T15:08:33;12.32;;;6.13;;
43248;SDS011;29216;51.248;6.808;2023-10-13T15:11:07;16.52;;;6.05;;
43248;SDS011;29216;51.248;6.808;2023-10-13T15:13:37;18.33;;;6.03;;
43248;SDS011;29216;51.248;6.808;2023-10-13T15:16:12;12.77;;;5.53;;
43248;SDS011;29216;51.248;6.808;2023-10-13T15:18:39;16.90;;;5.32;;
43248;SDS011;29216;51.248;6.808;2023-10-13T15:21:05;12.70;;;5.32;;
43248;SDS011;29216;51.248;6.808;2023-10-13T15:23:33;12.70;;;5.82;;
43248;SDS011;29216;51.248;6.808;2023-10-13T15:26:07;12.15;;;6.25;;
43248;SDS011;29216;51.248;6.808;2023-10-13T15:28:34;14.75;;;4.75;;
43248;SDS011;29216;51.248;6.808;2023-10-13T15:31:02;15.35;;;5.32;;
43248;SDS011;29216;51.248;6.808;2023-10-13T15:33:49;10.80;;;4.75;;
43248;SDS011;29216;51.248;6.808;2023-10-13T15:36:17;14.23;;;5.22;;